Language selection

Features

My Weather Profile Weather Topics  | 

Pacific - Georgia Basin: Past 24 Hour Conditions

 

Halibut Bank - 46146

02:00 PM PST 17 November 2019Buoy position: 49.34N 123.72W
Disclaimer

This table is a summary of hourly weather conditions for the past 24 hours.
Please note that these observations might not always be representative of weather conditions over their associated marine area.

Date / Time
(PST)
Wind(knots) Wave height(m) Wave period(s) Pressure(kPa) Air tempC) Water tempC)
17 November 2019
14:00 ESE 4 gust 4 0.4 4.0 101.8 12 10
13:00 E 6 gust 8 0.5 3.0 101.7 11 10
12:00 E 12 gust 13 0.7 3.0 101.7 11 10
11:00 E 17 gust 19 0.7 4.0 101.6 11 10
10:00 E 19 gust 22 0.8 4.0 101.6 11 10
9:00 E 19 gust 22 0.8 4.0 101.5 11 10
8:00 E 19 gust 23 0.9 4.0 101.5 11 10
7:00 E 19 gust 23 1.0 4.0 101.5 11 10
6:00 E 23 gust 27 0.9 4.0 101.4 11 10
5:00 E 22 gust 25 0.9 4.0 101.5 11 10
4:00 E 23 gust 25 0.9 4.0 101.5 10 10
3:00 E 22 gust 23 1.0 4.0 101.6 11 10
2:00 E 23 gust 27 1.0 4.0 101.6 10 10
1:00 E 23 gust 27 1.0 4.0 101.6 11 10
0:00 E 22 gust 23 1.0 4.0 101.7 11 10
16 November 2019
23:00 E 23 gust 29 1.0 4.0 101.7 11 10
22:00 E 23 gust 27 1.0 4.0 101.8 11 10
21:00 E 23 gust 29 0.8 4.0 101.9 10 10
20:00 E 22 gust 25 0.8 4.0 102.0 10 10
19:00 E 22 gust 25 0.7 4.0 102.0 11 10
18:00 E 22 gust 25 0.7 3.0 102.0 11 10
17:00 E 17 gust 22 0.6 3.0 102.1 11 10
16:00 E 17 gust 19 0.6 3.0 102.1 11 10
15:00 E 19 gust 23 0.7 3.0 102.1 11 10
14:00 N/A N/A N/A N/A N/A N/A

Zoom-in to make a selection

Map of Pacific - Georgia Basin marine weather areas Sentry Shoal - 46131 Halibut Bank - 46146 La Perouse Bank - 46206 Discovery Island Esquimalt Harbour Kelp Reefs Malahat Race Rocks Lightstation Saturna Island Sheringham Point University of Victoria Victoria Gonzales Victoria Int'l Airport Ballenas Islands Campbell River Airport Comox Airport Entrance Island Fanny Island Nanaimo Airport Sisters Islets Estevan Point Port Alberni Tofino Airport Grief Point Howe Sound - Pam Rocks Powell River Airport Sechelt Squamish Airport Point Atkinson Sand Heads Lightstation Tsawwassen Ferry Terminal Vancouver Int'l Airport Vancouver Harbour West Vancouver
Legend:
buoy Buoy
land station Land Station

Pacific - Georgia Basin Area

Another Region

What we are doing

Date modified: